Aeroporto :
LOGIN :

Iscrizione | Disclaimer

   EN    FR    IT 

 










Sommario :    VFR   VFR Marginale   IFR   IFR Intensivo   IFR Molto Intensivo
Visibilità : 
Base nubi : 
>= 8 km
>= 3000ft
5 / 8 km
1000 / 3000 ft
1500m / 5 km
500 / 1000 ft
800 / 1500m
200 / 500 ft
< 800m
< 200 ft
Simboli :   Temporali  Nebbia  Neve Forte  Precipitazioni Forti  Vento > 20 kt
SIGMETs :   Varie  Temporali  Ghiacco  Turbolenza  Onda orograficha  Ceneri Vulcaniche






- Altitudine del aeroporto : 1079 ft


ETIK - Illesheim Air Base

ULTIMO METAR :
  • 121956Z AUTO 28008KT 9999 CLR 18/10 A3017 RMK AO2 SLP207 T01800101 $

METARs OBSOLETI :
  • 121856Z AUTO 29009KT 9999 SCT060 20/10 A3015 RMK AO2 SLP201 T01990097 $
  • 121756Z AUTO 30008KT 9999 BKN060 21/11 A3014 RMK AO2 SLP197 T02050106 10255 20205 52017 $

TAF TAF ETIK
Valido dal 11 a 22 ore il 13 a 04 ore UTC


112155Z 1122/1304 VRB06KT 9999 SKC QNH3006INS
BECMG 1213/1214 28012G20KT 9999 FEW050 QNH3006INS
BECMG 1220/1221 VRB06KT 9999 SCT050 QNH3008INS TX26/1213Z TN15/1203Z LAST NO AMDS AFT 1122 NEXT 1404



MetMap, La meteo Aeronautica in un colpo d'occhio ! - Copyright ORBIFLY Dicembre 2007 - Disclaimer

ORBIFLY MET'MAP TEAM :

Programmazione e sviluppo : Alexandra Zaïnal
Concezione : Baudouin d'Aumeries
Aiuto per la programmazione : Marc-Olivier Méhu
Supporto tecnico e logistico : Manuel Goepfert
Aiuto per la traduzione : Arnaldo La Scala

Contatto : metmap@orbifly.com




FONTI E CREDITI :

   NOAA